Carson Valley, Nevada Weather observations

Data are for 10 minute period ending at time listed.
 Day   Time   Solar   Ave.   Ave.  Ave.  Vector  Max.   Baro.   Total    
  of    of     Rad.   Air    Rel.  Wind   Wind   Wind  Press.  Precip.   
Year   Day            Temp.  Hum.  Speed  Dir.   Gust                    
2014   (PST)  Kw/m2    F      %     mph   deg.    mph    mb.     in.     
-------------------------------------------------------------------------
 212    5:50   0.03   48.4    95    1.5   224     2.4   861.6    0.00 
 212    6:00   0.03   48.8    95    2.2   212     2.9   861.6    0.00 
 212    6:10   0.03   48.7    94    2.1   234     2.9   861.6    0.00 
 212    6:20   0.04   49.3    95    0.9   264     1.8   861.6    0.00 
 212    6:30   0.05   49.8    94    1.3   267     1.9   861.6    0.00 
 212    6:40   0.07   50.4    94    2.1    19     2.7   861.6    0.00 
 212    6:50   0.12   51.9    95    0.9    59     2.0   861.7    0.00 
 212    7:00   0.20   53.6    93    1.3   283     2.5   861.7    0.00 
 212    7:10   0.28   55.4    90    2.2   278     3.0   861.7    0.00 
 212    7:20   0.38   58.9    85    0.8   316     2.3   861.8    0.00 
 212    7:30   0.42   62.5    72    1.0    20     3.5   862.0    0.00 
 212    7:40   0.45   64.8    65    1.1     3     2.6   862.1    0.00 
 212    7:50   0.48   66.5    61    1.3    40     3.1   862.1    0.00 
 212    8:00   0.52   68.5    56    1.1    72     3.8   862.1    0.00 
 212    8:10   0.55   69.9    51    1.7   165     3.9   862.2    0.00 
 212    8:20   0.58   70.5    50    2.3   171     4.8   862.3    0.00 
 212    8:30   0.54   70.6    50    2.5   160     5.2   862.2    0.00 
 212    8:40   0.64   71.2    50    1.1   194     3.2   862.1    0.00 
 212    8:50   0.66   72.2    50    2.3   200     3.7   861.9    0.00 
 212    9:00   0.69   72.4    49    1.9   229     3.1   861.8    0.00 
 212    9:10   0.72   72.4    49    1.4   299     2.5   861.8    0.00 
 212    9:20   0.75   73.8    47    0.8   287     2.8   861.8    0.00 
 212    9:30   0.77   74.8    45    1.4   300     3.4   861.7    0.00 
 212    9:40   0.80   76.0    43    1.5   355     2.8   861.7    0.00 
 212    9:50   0.82   76.5    45    2.8   283     5.2   861.6    0.00 
 212   10:00   0.81   76.6    42    2.2   279     4.1   861.4    0.00 
 212   10:10   0.86   77.5    39    1.8   270     4.1   861.3    0.00 
 212   10:20   0.88   78.5    37    1.8   238     4.2   861.2    0.00 
 212   10:30   0.90   79.3    35    1.8   253     4.1   861.1    0.00 
 212   10:40   0.92   80.8    31    1.4   241     3.3   861.0    0.00 
 212   10:50   0.94   81.2    32    1.8   222     3.3   860.9    0.00 
 212   11:00   0.95   82.0    32    1.7   298     3.1   860.8    0.00 
 212   11:10   0.97   83.0    30    1.6   335     3.8   860.6    0.00 
 212   11:20   0.99   83.1    32    2.8   256     5.0   860.4    0.00 
 212   11:30   1.03   83.5    30    3.4   274     6.7   860.3    0.00 
 212   11:40   1.00   84.4    30    3.4   207     6.6   860.1    0.00 
 212   11:50   0.96   86.0    29    2.0   178     5.4   860.0    0.00 
 212   12:00   1.01   85.4    30    3.2   241     5.8   860.0    0.00 
 212   12:10   1.14   86.3    28    3.8   201     6.5   859.9    0.00 
 212   12:20   0.84   86.5    25    2.0   219     4.2   859.8    0.00 
 212   12:30   0.37   84.7    31    3.1   169     7.2   859.8    0.00 
 212   12:40   0.76   85.2    29    2.6   170     5.8   859.7    0.00 
 212   12:50   1.14   87.3    27    4.1   158     9.0   859.5    0.00 
 212   13:00   1.09   88.8    26    2.1   177     5.8   859.4    0.00 
 212   13:10   1.06   87.5    26    4.4   244     6.6   859.2    0.00 
 212   13:20   1.01   87.3    25    3.4   233     7.2   859.1    0.00 
 212   13:30   0.84   89.1    23    2.0   213     4.5   859.1    0.00 
 212   13:40   0.78   87.5    26    2.5   204     6.9   858.9    0.00 
 212   13:50   0.67   87.9    25    5.0   176     8.7   858.8    0.00 
 212   14:00   0.17   86.0    25    2.0   141     5.0   858.7    0.00 
 212   14:10   0.22   85.5    22    0.9    80     3.7   858.6    0.00 
 212   14:20   0.96   88.4    24    1.0    88     2.9   858.5    0.00 
 212   14:30   0.87   90.3    26    1.3   247     3.1   858.4    0.00 
 212   14:40   0.74   88.2    24    3.7   310     8.0   858.4    0.00 
 212   14:50   0.81   86.8    28    6.3   295    10.1   858.3    0.00 
 212   15:00   0.48   85.1    30    5.6   290    11.2   858.3    0.00 
 212   15:10   0.80   86.1    28    7.0   296    11.5   858.2    0.00 
 212   15:20   0.80   87.0    27    5.7   298    10.1   858.1    0.00 
 212   15:30   0.74   86.1    28    8.9   301    16.1   858.0    0.00 
 212   15:40   0.68   86.3    29    7.3   306    13.5   858.0    0.00 
 212   15:50   0.68   85.6    29    9.3   287    14.7   858.0    0.00 
 212   16:00   0.62   85.3    29    9.0   288    14.0   857.9    0.00 
 212   16:10   0.65   85.4    30    9.3   273    14.0   858.0    0.00 
 212   16:20   0.59   85.3    28   10.7   260    18.0   858.0    0.00 
 212   16:30   0.16   82.4    30   10.1   263    14.6   857.9    0.00 
 212   16:40   0.20   80.8    31    8.8   281    15.7   857.9    0.00 
 212   16:50   0.41   83.2    28   12.4   283    20.2   857.9    0.00 
 212   17:00   0.38   82.9    30   10.4   282    17.0   857.9    0.00 
 212   17:10   0.34   82.3    30   12.3   292    20.0   857.9    0.00 
 212   17:20   0.30   81.6    30   13.3   292    21.0   857.9    0.00 
 212   17:30   0.28   81.2    30   14.4   296    20.9   857.9    0.00 
 212   17:40   0.17   81.0    30   14.0   294    23.8   858.0    0.00 
 212   17:50   0.20   80.8    31   12.2   297    19.1   858.0    0.00 
 212   18:00   0.17   80.1    33   11.5   300    17.2   858.0    0.00 
 212   18:10   0.14   79.8    33    8.8   297    14.7   858.1    0.00 
 212   18:20   0.10   79.2    33    9.9   305    16.1   858.2    0.00 
 212   18:30   0.04   78.2    34    7.2   291    14.7   858.4    0.00 
 212   18:40   0.04   79.4    31   10.2   288    14.8   858.5    0.00 
 212   18:50   0.03   79.5    31   10.3   282    16.7   858.7    0.00 
 212   19:00   0.02   79.5    30   10.5   280    16.9   858.7    0.00 
 212   19:10   0.01   79.6    30   11.0   285    17.6   858.8    0.00 
 212   19:20   0.00   79.0    30    9.3   285    15.9   858.8    0.00 
 212   19:30   0.00   78.6    30   10.1   286    16.8   858.9    0.00 
 212   19:40   0.00   78.4    30    8.8   284    13.4   858.9    0.00 
 212   19:50   0.00   78.3    30   10.4   278    17.7   859.0    0.00 
 212   20:00   0.00   78.5    30   11.7   276    18.1   859.1    0.00 
 212   20:10   0.00   78.7    29   12.2   280    19.9   859.2    0.00 
 212   20:20   0.00   79.0    29   13.5   277    19.8   859.3    0.00 
 212   20:30   0.00   78.2    30    9.5   284    14.8   859.4    0.00 
 212   20:40   0.00   77.8    30   11.7   285    18.2   859.5    0.00 
 212   20:50   0.00   78.1    30   13.0   276    18.9   859.6    0.00 
 212   21:00   0.00   77.9    30   11.6   278    17.6   859.7    0.00 
 212   21:10   0.00   77.9    30   10.8   272    15.8   859.7    0.00 
 212   21:20   0.00   77.0    31    5.9   298    12.6   859.9    0.00 
 212   21:30   0.00   76.1    32    2.8   126     7.2   860.1    0.00 
 212   21:40   0.00   75.3    34    2.3   191     5.4   860.1    0.00 
 212   21:50   0.00   71.9    40    4.6   208     7.6   860.1    0.00 
 212   22:00   0.00   72.0    40    4.7   220     7.9   860.1    0.00 
 212   22:10   0.00   71.9    40    3.5   222     4.7   860.1    0.00 
 212   22:20   0.00   70.8    41    4.0   184     5.1   860.0    0.00 
 212   22:30   0.00   67.5    50    3.1   176     5.0   860.0    0.00 
 212   22:40   0.00   64.3    55    2.7   124     3.7   860.0    0.00 
 212   22:50   0.00   63.1    59    2.7   187     4.8   860.1    0.00 
 212   23:00   0.00   62.8    60    1.3   157     6.2   860.1    0.00 
 212   23:10   0.00   60.1    65    4.2    96     5.0   860.1    0.00 
 212   23:20   0.00   60.2    65    2.8   149     4.2   860.1    0.00 
 212   23:30   0.00   59.1    69    1.7   180     3.3   860.1    0.00 
 212   23:40   0.00   59.2    70    2.5   205     4.7   860.2    0.00 
 212   23:50   0.00   58.8    71    3.6   211     5.4   860.1    0.00 
 213    0:00   0.00   59.5    68    1.4   220     3.2   860.0    0.00 
 213    0:10   0.00   58.2    71    2.1   130     4.6   859.9    0.00 
 213    0:20   0.00   56.7    73    4.0   114     5.1   859.8    0.00 
 213    0:30   0.00   55.0    77    2.3   146     4.2   859.8    0.00 
 213    0:40   0.00   56.2    77    4.1   187     5.3   859.9    0.00 
 213    0:50   0.00   57.4    74    3.1   144     3.8   860.0    0.00 
 213    1:00   0.00   57.6    73    2.2   136     3.1   860.0    0.00 
 213    1:10   0.00   55.8    76    0.8    82     2.3   860.1    0.00 
 213    1:20   0.00   55.3    78    0.7   305     1.8   860.1    0.00 
 213    1:30   0.00   55.3    78    3.3    39     6.1   860.3    0.00 
 213    1:40   0.00   54.4    81    3.1   319     5.9   860.3    0.00 
 213    1:50   0.00   55.7    82    5.5   277     7.2   860.2    0.00 
 213    2:00   0.00   57.2    79    3.7   293     5.0   860.2    0.00 
 213    2:10   0.00   57.9    76    2.1   272     3.1   860.2    0.00 
 213    2:20   0.00   58.3    73    1.9   203     4.6   860.1    0.00 
 213    2:30   0.00   56.2    76    3.6   157     4.6   860.0    0.00 
 213    2:40   0.00   54.8    78    3.0    89     4.3   860.0    0.00 
 213    2:50   0.00   53.9    80    2.2    64     3.7   859.9    0.00 
 213    3:00   0.00   53.1    81    3.4    70     5.0   860.0    0.00 
 213    3:10   0.00   53.3    82    2.8   125     4.2   859.9    0.00 
 213    3:20   0.00   54.2    80    4.4   196     6.6   860.1    0.00 
 213    3:30   0.00   54.2    83    5.7   200     8.0   860.1    0.00 
 213    3:40   0.00   55.2    78    3.8   193     5.0   860.2    0.00 
 213    3:50   0.00   55.1    78    3.9   182     4.9   860.2    0.00 
 213    4:00   0.00   54.4    78    3.8   212     5.3   860.2    0.00 
 213    4:10   0.00   55.0    76    2.6   220     3.4   860.1    0.00 
 213    4:20   0.00   54.0    78    1.2   126     2.9   860.2    0.00 
 213    4:30   0.00   53.2    80    2.1   141     3.3   860.2    0.00 
 213    4:40   0.00   52.5    80    1.6   163     2.1   860.1    0.00 
 213    4:50   0.00   52.1    82    2.2   110     3.8   860.1    0.00 
 213    5:00   0.00   51.8    83    0.8     5     2.3   860.1    0.00 
 213    5:10   0.01   52.7    81    1.5    65     2.2   860.0    0.00 
 213    5:20   0.01   52.2    79    3.5    90     4.7   860.0    0.00 
 213    5:30   0.04   51.2    84    3.5   105     4.9   860.0    0.00 
 213    5:40   0.05   51.8    85    2.1   271     3.4   860.0    0.00 

Return to Carson Valley graphs page.


Western Regional Climate Center,wrcc@dri.edu